• Join FlightAware (Why Join?)
  • Login
  • US Flag 
09:40PM EDT


 

Airport Tracker/Info


-or-


 

Live Flight TrackerFlight Track Log ✈ SWA920 ✈ 22-Apr-2013 ✈ KBNA - KCHS

Flight Track Log - Related Links

Times and Time Zones

All times are in EDT time to prevent confusion due to time zone crossing. See the SWA920 flight status page for this flight to view local times or setup timezone preferences in your user account.

Time Position Orientation Groundspeed Altitude Reporting Facility
EDT Latitude Longitude Course Direction KTS MPH feet Rate Location/Type
06:16PM 36.1000 -86.6833 152° Southeast 152 175 1,500  Level Nashville TRACON
06:17PM 36.0500 -86.6500 152° Southeast 182 209 3,700 1,860 Climbing Nashville TRACON
06:18PM 36.0500 -86.5500 90° East 253 291 6,000 2,280 Climbing Nashville TRACON
06:19PM 36.0483 -86.4986 92° East 265 305 7,900 2,520 Climbing Memphis Center
06:20PM 36.0556 -86.3956 85° East 313 360 10,400 9,000 Climbing Memphis Center
06:22PM 36.0675 -86.1253 87° East 387 445 35,000 2,760 Climbing Memphis Center
06:23PM 36.0667 -85.9817 90° East 415 478 18,700 -3,180 Descending Memphis Center
06:25PM 36.0397 -85.6361 95° East 455 524 24,500 2,400 Climbing Atlanta Center
06:26PM 36.0292 -85.4767 95° East 461 531 26,800 2,280 Climbing Atlanta Center
06:27PM 36.0164 -85.3119 95° East 466 536 29,100 2,340 Climbing Atlanta Center
06:28PM 36.0033 -85.1347 95° East 471 542 31,500 2,100 Climbing Atlanta Center
06:29PM 35.9525 -84.9956 114° Southeast 450 518 33,400 1,680 Climbing Atlanta Center
06:30PM 35.8572 -84.8969 140° Southeast 443 510 34,900 780 Climbing Atlanta Center
06:31PM 35.7597 -84.7936 139° Southeast 453 521 35,000  Climbing Atlanta Center
06:32PM 35.6622 -84.6881 139° Southeast 459 528 35,000  Level Atlanta Center
06:33PM 35.5669 -84.5850 139° Southeast 459 528 35,000  Level Atlanta Center
06:34PM 35.4692 -84.4800 139° Southeast 465 535 35,000  Level Atlanta Center
06:35PM 35.3756 -84.3775 138° Southeast 465 535 35,000  Level Atlanta Center
06:36PM 35.2778 -84.2753 140° Southeast 459 528 35,000  Level Atlanta Center
06:37PM 35.1842 -84.1758 139° Southeast 459 528 35,000  Level Atlanta Center
06:38PM 35.0903 -84.0742 138° Southeast 459 528 35,000  Level Atlanta Center
06:39PM 34.9942 -83.9728 139° Southeast 459 528 35,000  Level Atlanta Center
06:40PM 34.9003 -83.8514 133° Southeast 442 509 35,000  Level Atlanta Center
06:41PM 34.8208 -83.7353 130° Southeast 450 518 35,000  Level Atlanta Center
06:42PM 34.7369 -83.6167 131° Southeast 450 518 35,000  Level Atlanta Center
06:43PM 34.6550 -83.4983 130° Southeast 458 527 35,000  Level Atlanta Center
06:44PM 34.5814 -83.3953 131° Southeast 452 520 35,000  Level Atlanta Center
06:45PM 34.5014 -83.2775 129° Southeast 452 520 35,000  Level Atlanta Center
06:46PM 34.4172 -83.1575 130° Southeast 457 526 35,000 -300 Level Atlanta Center
06:47PM 34.3369 -83.0400 130° Southeast 457 526 34,400 -840 Descending Atlanta Center
06:48PM 34.2547 -82.9281 132° Southeast 449 517 33,400 -1,020 Descending Atlanta Center
06:49PM 34.1636 -82.7986 130° Southeast 449 517 32,400 -960 Descending Atlanta Center
06:50PM 34.0789 -82.6794 131° Southeast 460 529 31,500 -960 Descending Atlanta Center
06:51PM 33.9942 -82.5631 131° Southeast 454 522 30,500 -1,020 Descending Atlanta Center
06:52PM 33.9133 -82.4492 131° Southeast 454 522 29,500 -780 Descending Atlanta Center
06:53PM 33.8283 -82.3308 131° Southeast 460 529 29,000 -300 Descending Atlanta Center
06:54PM 33.7408 -82.2078 131° Southeast 460 529 29,000 -420 Level Atlanta Center
06:56PM 33.6303 -81.9197 115° Southeast 475 547 27,800 -660 Descending Jacksonville Center
06:57PM 33.5831 -81.7681 110° East 486 559 27,000 -900 Descending Jacksonville Center
06:58PM 33.5378 -81.6242 111° Southeast 480 552 26,000 -1,020 Descending Jacksonville Center
06:59PM 33.4925 -81.4731 110° East 480 552 25,000 -1,980 Descending Jacksonville Center
07:00PM 33.4447 -81.3292 112° Southeast 469 540 22,100 -2,940 Descending Jacksonville Center
07:01PM 33.3992 -81.1883 111° Southeast 462 532 19,200 -2,700 Descending Jacksonville Center
07:02PM 33.3556 -81.0550 111° Southeast 444 511 16,700 -2,640 Descending Jacksonville Center
07:03PM 33.3139 -80.9264 111° Southeast 430 495 14,000 -2,520 Descending Jacksonville Center
07:04PM 33.2744 -80.8031 111° Southeast 413 475 11,700 -1,500 Descending Jacksonville Center
07:05PM 33.2369 -80.6897 112° Southeast 385 443 11,000 -780 Descending Jacksonville Center
07:06PM 33.1892 -80.5867 119° Southeast 367 422 10,200 -780 Descending Jacksonville Center
07:07PM 33.1294 -80.5114 133° Southeast 339 390 9,500 -1,140 Descending Jacksonville Center
07:08PM 33.0758 -80.4408 132° Southeast 309 356 8,000 -1,560 Descending Jacksonville Center
07:09PM 33.0183 -80.3731 135° Southeast 290 334 6,400 -1,500 Descending Jacksonville Center
07:10PM 32.9625 -80.3028 133° Southeast 290 334 5,000 -1,380 Descending Jacksonville Center
07:11PM 32.9069 -80.2353 134° Southeast 290 334 3,700 -1,200 Descending Jacksonville Center
07:12PM 32.8617 -80.1722 131° Southeast 273 314 2,600 -1,140 Descending Jacksonville Center
07:14PM 32.8824 -80.0388 79° East  Level FlightAware Approximate
07:21PM 32.8833 -80.0333 79° East  Level FlightAware Approximate
07:22PM 32.8986 -80.0405 79° East  Level Estimated
07:23PM 32.8986 -80.0405 79° East  Level Estimated
07:24PM 32.8986 -80.0405 79° East  Level Estimated